Terminal Aerodrome Forecast
Issued by NWS

Home | Current Version | Previous Version | Text Only | Print | Product List | Glossary On
Versions: 1 2 3 4 5 6 7 8 9 10 11 12 13 14
863
FTUS44 KEPZ 271721
TAFDMN
TAF
KDMN 271721Z 2718/2818 25017G27KT P6SM FEW150 BKN250
     FM280200 25010KT P6SM SCT090 BKN150 OVC250
     FM281500 26020G30KT P6SM SCT090 BKN150=

USA.gov is the U.S. government's official web portal to all federal, state and local government web resources and services.